sensor_id;sensor_type;location;lat;lon;timestamp;P1;durP1;ratioP1;P2;durP2;ratioP2
70335;SDS011;57756;47.408;18.940;2022-07-22T00:02:05;5.03;;;1.80;;
70335;SDS011;57756;47.408;18.940;2022-07-22T00:04:31;4.65;;;1.70;;
70335;SDS011;57756;47.408;18.940;2022-07-22T00:06:56;4.77;;;1.70;;
70335;SDS011;57756;47.408;18.940;2022-07-22T00:09:22;6.32;;;1.70;;
70335;SDS011;57756;47.408;18.940;2022-07-22T00:11:48;11.03;;;2.20;;
70335;SDS011;57756;47.408;18.940;2022-07-22T00:14:13;8.53;;;1.60;;
70335;SDS011;57756;47.408;18.940;2022-07-22T00:16:39;8.05;;;1.50;;
70335;SDS011;57756;47.408;18.940;2022-07-22T00:19:05;4.90;;;1.55;;
70335;SDS011;57756;47.408;18.940;2022-07-22T00:21:30;4.03;;;1.60;;
70335;SDS011;57756;47.408;18.940;2022-07-22T00:23:56;7.30;;;2.00;;
70335;SDS011;57756;47.408;18.940;2022-07-22T00:26:22;6.10;;;1.60;;
70335;SDS011;57756;47.408;18.940;2022-07-22T00:28:47;4.07;;;1.67;;
70335;SDS011;57756;47.408;18.940;2022-07-22T00:31:13;4.50;;;1.50;;
70335;SDS011;57756;47.408;18.940;2022-07-22T00:33:38;6.10;;;1.52;;
70335;SDS011;57756;47.408;18.940;2022-07-22T00:36:04;5.60;;;1.77;;
70335;SDS011;57756;47.408;18.940;2022-07-22T00:38:31;3.83;;;1.65;;
70335;SDS011;57756;47.408;18.940;2022-07-22T00:40:57;5.23;;;1.50;;
70335;SDS011;57756;47.408;18.940;2022-07-22T00:43:22;5.82;;;1.40;;
70335;SDS011;57756;47.408;18.940;2022-07-22T00:45:48;3.50;;;1.33;;
70335;SDS011;57756;47.408;18.940;2022-07-22T00:48:13;4.90;;;1.50;;
70335;SDS011;57756;47.408;18.940;2022-07-22T00:50:39;5.40;;;1.40;;
70335;SDS011;57756;47.408;18.940;2022-07-22T00:53:05;4.80;;;1.50;;
70335;SDS011;57756;47.408;18.940;2022-07-22T00:55:32;4.83;;;1.73;;
70335;SDS011;57756;47.408;18.940;2022-07-22T00:57:58;5.90;;;1.50;;
70335;SDS011;57756;47.408;18.940;2022-07-22T01:00:24;4.83;;;1.60;;
70335;SDS011;57756;47.408;18.940;2022-07-22T01:02:50;4.65;;;1.60;;
70335;SDS011;57756;47.408;18.940;2022-07-22T01:05:16;3.40;;;1.43;;
70335;SDS011;57756;47.408;18.940;2022-07-22T01:07:43;4.47;;;1.80;;
70335;SDS011;57756;47.408;18.940;2022-07-22T01:10:08;3.20;;;1.40;;
70335;SDS011;57756;47.408;18.940;2022-07-22T01:12:34;4.85;;;1.50;;
70335;SDS011;57756;47.408;18.940;2022-07-22T01:15:00;8.67;;;1.50;;
70335;SDS011;57756;47.408;18.940;2022-07-22T01:17:26;5.60;;;1.35;;
70335;SDS011;57756;47.408;18.940;2022-07-22T01:19:51;6.23;;;1.70;;
70335;SDS011;57756;47.408;18.940;2022-07-22T01:22:17;5.55;;;1.98;;
70335;SDS011;57756;47.408;18.940;2022-07-22T01:24:43;4.67;;;2.00;;
70335;SDS011;57756;47.408;18.940;2022-07-22T01:27:08;4.50;;;1.58;;
70335;SDS011;57756;47.408;18.940;2022-07-22T01:29:34;6.47;;;1.90;;
70335;SDS011;57756;47.408;18.940;2022-07-22T01:31:59;3.17;;;1.40;;
70335;SDS011;57756;47.408;18.940;2022-07-22T01:34:25;3.93;;;1.57;;
70335;SDS011;57756;47.408;18.940;2022-07-22T01:36:51;5.17;;;1.80;;
70335;SDS011;57756;47.408;18.940;2022-07-22T01:39:16;5.30;;;1.60;;
70335;SDS011;57756;47.408;18.940;2022-07-22T01:41:42;5.10;;;1.60;;
70335;SDS011;57756;47.408;18.940;2022-07-22T01:44:08;4.63;;;1.42;;
70335;SDS011;57756;47.408;18.940;2022-07-22T01:46:33;4.87;;;1.53;;
70335;SDS011;57756;47.408;18.940;2022-07-22T01:48:59;3.10;;;1.40;;
70335;SDS011;57756;47.408;18.940;2022-07-22T01:51:25;6.05;;;1.58;;
70335;SDS011;57756;47.408;18.940;2022-07-22T01:53:50;5.47;;;1.63;;
70335;SDS011;57756;47.408;18.940;2022-07-22T01:56:17;4.57;;;1.57;;
70335;SDS011;57756;47.408;18.940;2022-07-22T01:58:42;7.30;;;3.75;;
70335;SDS011;57756;47.408;18.940;2022-07-22T02:01:08;6.20;;;1.80;;
70335;SDS011;57756;47.408;18.940;2022-07-22T02:03:34;6.72;;;1.80;;
70335;SDS011;57756;47.408;18.940;2022-07-22T02:06:00;6.18;;;1.95;;
70335;SDS011;57756;47.408;18.940;2022-07-22T02:08:25;6.10;;;2.33;;
70335;SDS011;57756;47.408;18.940;2022-07-22T02:10:51;5.70;;;1.70;;
70335;SDS011;57756;47.408;18.940;2022-07-22T02:13:16;9.20;;;1.83;;
70335;SDS011;57756;47.408;18.940;2022-07-22T02:15:42;24.03;;;3.00;;
70335;SDS011;57756;47.408;18.940;2022-07-22T02:18:15;19.10;;;3.28;;
70335;SDS011;57756;47.408;18.940;2022-07-22T02:20:42;21.75;;;3.10;;
70335;SDS011;57756;47.408;18.940;2022-07-22T02:23:09;6.63;;;1.90;;
70335;SDS011;57756;47.408;18.940;2022-07-22T02:25:38;6.07;;;2.10;;
70335;SDS011;57756;47.408;18.940;2022-07-22T02:28:05;8.35;;;1.88;;
70335;SDS011;57756;47.408;18.940;2022-07-22T02:30:30;10.73;;;2.30;;
70335;SDS011;57756;47.408;18.940;2022-07-22T02:32:57;11.60;;;2.22;;
70335;SDS011;57756;47.408;18.940;2022-07-22T02:35:23;5.40;;;1.92;;
70335;SDS011;57756;47.408;18.940;2022-07-22T02:37:49;6.82;;;1.90;;
70335;SDS011;57756;47.408;18.940;2022-07-22T02:40:15;4.70;;;1.60;;
70335;SDS011;57756;47.408;18.940;2022-07-22T02:42:41;6.23;;;1.63;;
70335;SDS011;57756;47.408;18.940;2022-07-22T02:45:07;5.38;;;1.38;;
70335;SDS011;57756;47.408;18.940;2022-07-22T02:47:33;4.63;;;1.70;;
70335;SDS011;57756;47.408;18.940;2022-07-22T02:49:59;6.28;;;1.92;;
70335;SDS011;57756;47.408;18.940;2022-07-22T02:52:24;4.20;;;1.40;;
70335;SDS011;57756;47.408;18.940;2022-07-22T02:54:50;5.63;;;1.80;;
70335;SDS011;57756;47.408;18.940;2022-07-22T02:57:16;9.43;;;1.60;;
70335;SDS011;57756;47.408;18.940;2022-07-22T02:59:41;17.33;;;1.95;;
70335;SDS011;57756;47.408;18.940;2022-07-22T03:02:07;7.67;;;1.67;;
70335;SDS011;57756;47.408;18.940;2022-07-22T03:04:32;6.95;;;1.60;;
70335;SDS011;57756;47.408;18.940;2022-07-22T03:06:58;4.50;;;1.63;;
70335;SDS011;57756;47.408;18.940;2022-07-22T03:09:24;3.80;;;1.57;;
70335;SDS011;57756;47.408;18.940;2022-07-22T03:11:49;6.77;;;1.60;;
70335;SDS011;57756;47.408;18.940;2022-07-22T03:14:15;6.33;;;1.50;;
70335;SDS011;57756;47.408;18.940;2022-07-22T03:16:41;4.22;;;1.33;;
70335;SDS011;57756;47.408;18.940;2022-07-22T03:19:07;5.50;;;1.30;;
70335;SDS011;57756;47.408;18.940;2022-07-22T03:21:32;4.67;;;2.03;;
70335;SDS011;57756;47.408;18.940;2022-07-22T03:23:58;5.53;;;1.70;;
70335;SDS011;57756;47.408;18.940;2022-07-22T03:26:23;5.57;;;1.55;;
70335;SDS011;57756;47.408;18.940;2022-07-22T03:28:50;3.92;;;1.50;;
70335;SDS011;57756;47.408;18.940;2022-07-22T03:31:17;9.17;;;2.23;;
70335;SDS011;57756;47.408;18.940;2022-07-22T03:33:42;13.35;;;2.60;;
70335;SDS011;57756;47.408;18.940;2022-07-22T03:36:08;16.33;;;2.60;;
70335;SDS011;57756;47.408;18.940;2022-07-22T03:38:34;16.67;;;3.23;;
70335;SDS011;57756;47.408;18.940;2022-07-22T03:41:01;16.90;;;3.00;;
70335;SDS011;57756;47.408;18.940;2022-07-22T03:43:27;11.40;;;2.08;;
70335;SDS011;57756;47.408;18.940;2022-07-22T03:45:52;11.37;;;1.90;;
70335;SDS011;57756;47.408;18.940;2022-07-22T03:48:18;5.00;;;1.52;;
70335;SDS011;57756;47.408;18.940;2022-07-22T03:50:45;4.83;;;1.40;;
70335;SDS011;57756;47.408;18.940;2022-07-22T03:53:10;6.50;;;1.40;;
70335;SDS011;57756;47.408;18.940;2022-07-22T03:55:36;7.28;;;1.60;;
70335;SDS011;57756;47.408;18.940;2022-07-22T03:58:02;7.43;;;1.70;;
70335;SDS011;57756;47.408;18.940;2022-07-22T04:00:28;6.43;;;1.73;;
70335;SDS011;57756;47.408;18.940;2022-07-22T04:02:53;6.00;;;1.85;;
70335;SDS011;57756;47.408;18.940;2022-07-22T04:05:19;8.37;;;1.73;;
70335;SDS011;57756;47.408;18.940;2022-07-22T04:07:44;6.95;;;1.90;;
70335;SDS011;57756;47.408;18.940;2022-07-22T04:10:10;7.83;;;1.67;;
70335;SDS011;57756;47.408;18.940;2022-07-22T04:12:37;15.27;;;2.90;;
70335;SDS011;57756;47.408;18.940;2022-07-22T04:15:04;18.95;;;3.60;;
70335;SDS011;57756;47.408;18.940;2022-07-22T04:17:32;20.13;;;3.90;;
70335;SDS011;57756;47.408;18.940;2022-07-22T04:19:57;9.88;;;2.35;;
70335;SDS011;57756;47.408;18.940;2022-07-22T04:22:24;13.95;;;2.45;;
70335;SDS011;57756;47.408;18.940;2022-07-22T04:24:49;19.20;;;3.20;;
70335;SDS011;57756;47.408;18.940;2022-07-22T04:27:15;10.20;;;2.30;;
70335;SDS011;57756;47.408;18.940;2022-07-22T04:29:40;6.07;;;1.55;;
70335;SDS011;57756;47.408;18.940;2022-07-22T04:32:06;4.77;;;2.17;;
70335;SDS011;57756;47.408;18.940;2022-07-22T04:34:32;7.88;;;1.95;;
70335;SDS011;57756;47.408;18.940;2022-07-22T04:36:57;8.57;;;1.97;;
70335;SDS011;57756;47.408;18.940;2022-07-22T04:39:23;7.00;;;2.40;;
70335;SDS011;57756;47.408;18.940;2022-07-22T04:41:48;8.77;;;2.17;;
70335;SDS011;57756;47.408;18.940;2022-07-22T04:44:14;7.00;;;1.90;;
70335;SDS011;57756;47.408;18.940;2022-07-22T04:46:39;4.18;;;1.90;;
70335;SDS011;57756;47.408;18.940;2022-07-22T04:49:05;5.50;;;1.80;;
70335;SDS011;57756;47.408;18.940;2022-07-22T04:51:30;5.30;;;2.20;;
70335;SDS011;57756;47.408;18.940;2022-07-22T04:53:56;6.43;;;2.10;;
70335;SDS011;57756;47.408;18.940;2022-07-22T04:56:21;6.32;;;1.70;;
70335;SDS011;57756;47.408;18.940;2022-07-22T04:58:47;9.10;;;2.73;;
70335;SDS011;57756;47.408;18.940;2022-07-22T05:01:14;5.57;;;2.22;;
70335;SDS011;57756;47.408;18.940;2022-07-22T05:03:40;7.63;;;2.40;;
70335;SDS011;57756;47.408;18.940;2022-07-22T05:06:06;15.40;;;4.35;;
70335;SDS011;57756;47.408;18.940;2022-07-22T05:08:31;8.07;;;2.25;;
70335;SDS011;57756;47.408;18.940;2022-07-22T05:10:57;6.37;;;1.77;;
70335;SDS011;57756;47.408;18.940;2022-07-22T05:13:22;10.03;;;2.33;;
70335;SDS011;57756;47.408;18.940;2022-07-22T05:15:48;6.97;;;1.98;;
70335;SDS011;57756;47.408;18.940;2022-07-22T05:18:14;8.33;;;2.10;;
70335;SDS011;57756;47.408;18.940;2022-07-22T05:20:39;5.93;;;2.30;;
70335;SDS011;57756;47.408;18.940;2022-07-22T05:23:05;7.93;;;1.80;;
70335;SDS011;57756;47.408;18.940;2022-07-22T05:25:30;4.00;;;1.38;;
70335;SDS011;57756;47.408;18.940;2022-07-22T05:27:56;4.73;;;1.57;;
70335;SDS011;57756;47.408;18.940;2022-07-22T05:30:22;3.67;;;1.30;;
70335;SDS011;57756;47.408;18.940;2022-07-22T05:32:47;4.03;;;1.40;;
70335;SDS011;57756;47.408;18.940;2022-07-22T05:35:13;4.23;;;1.60;;
70335;SDS011;57756;47.408;18.940;2022-07-22T05:37:39;4.65;;;1.90;;
70335;SDS011;57756;47.408;18.940;2022-07-22T05:40:05;5.10;;;2.30;;
70335;SDS011;57756;47.408;18.940;2022-07-22T05:42:31;7.18;;;2.10;;
70335;SDS011;57756;47.408;18.940;2022-07-22T05:44:59;4.50;;;1.40;;
70335;SDS011;57756;47.408;18.940;2022-07-22T05:47:24;8.13;;;1.70;;
70335;SDS011;57756;47.408;18.940;2022-07-22T05:49:50;3.83;;;1.50;;
70335;SDS011;57756;47.408;18.940;2022-07-22T05:52:15;9.13;;;1.70;;
70335;SDS011;57756;47.408;18.940;2022-07-22T05:54:42;4.53;;;1.50;;
70335;SDS011;57756;47.408;18.940;2022-07-22T05:57:07;5.63;;;1.93;;
70335;SDS011;57756;47.408;18.940;2022-07-22T05:59:34;4.57;;;1.75;;
70335;SDS011;57756;47.408;18.940;2022-07-22T06:02:00;6.72;;;1.70;;
70335;SDS011;57756;47.408;18.940;2022-07-22T06:04:26;7.73;;;2.13;;
70335;SDS011;57756;47.408;18.940;2022-07-22T06:06:52;5.70;;;1.58;;
70335;SDS011;57756;47.408;18.940;2022-07-22T06:09:17;7.93;;;2.30;;
70335;SDS011;57756;47.408;18.940;2022-07-22T06:11:43;6.65;;;1.88;;
70335;SDS011;57756;47.408;18.940;2022-07-22T06:14:08;6.13;;;1.50;;
70335;SDS011;57756;47.408;18.940;2022-07-22T06:16:34;7.67;;;1.90;;
70335;SDS011;57756;47.408;18.940;2022-07-22T06:19:00;5.10;;;2.25;;
70335;SDS011;57756;47.408;18.940;2022-07-22T06:21:26;13.82;;;2.28;;
70335;SDS011;57756;47.408;18.940;2022-07-22T06:23:51;6.87;;;1.80;;
70335;SDS011;57756;47.408;18.940;2022-07-22T06:26:17;6.95;;;1.83;;
70335;SDS011;57756;47.408;18.940;2022-07-22T06:28:43;10.20;;;2.27;;
70335;SDS011;57756;47.408;18.940;2022-07-22T06:31:08;6.15;;;2.25;;
70335;SDS011;57756;47.408;18.940;2022-07-22T06:33:34;5.50;;;1.93;;
70335;SDS011;57756;47.408;18.940;2022-07-22T06:36:00;4.75;;;2.00;;
70335;SDS011;57756;47.408;18.940;2022-07-22T06:38:25;5.87;;;1.83;;
70335;SDS011;57756;47.408;18.940;2022-07-22T06:40:51;4.38;;;1.92;;
70335;SDS011;57756;47.408;18.940;2022-07-22T06:43:16;7.67;;;2.43;;
70335;SDS011;57756;47.408;18.940;2022-07-22T06:45:42;7.23;;;2.23;;
70335;SDS011;57756;47.408;18.940;2022-07-22T06:48:07;8.63;;;2.13;;
70335;SDS011;57756;47.408;18.940;2022-07-22T06:50:33;6.03;;;2.20;;
70335;SDS011;57756;47.408;18.940;2022-07-22T06:52:58;6.60;;;2.33;;
70335;SDS011;57756;47.408;18.940;2022-07-22T06:55:24;7.32;;;2.30;;
70335;SDS011;57756;47.408;18.940;2022-07-22T06:57:49;10.70;;;2.50;;
70335;SDS011;57756;47.408;18.940;2022-07-22T07:00:15;7.00;;;2.17;;
70335;SDS011;57756;47.408;18.940;2022-07-22T07:02:41;6.53;;;1.98;;
70335;SDS011;57756;47.408;18.940;2022-07-22T07:05:06;7.22;;;2.47;;
70335;SDS011;57756;47.408;18.940;2022-07-22T07:07:32;4.57;;;1.87;;
70335;SDS011;57756;47.408;18.940;2022-07-22T07:09:58;5.35;;;1.70;;
70335;SDS011;57756;47.408;18.940;2022-07-22T07:12:23;5.27;;;1.80;;
70335;SDS011;57756;47.408;18.940;2022-07-22T07:14:49;9.43;;;1.87;;
70335;SDS011;57756;47.408;18.940;2022-07-22T07:17:14;5.90;;;1.85;;
70335;SDS011;57756;47.408;18.940;2022-07-22T07:19:40;8.13;;;2.13;;
70335;SDS011;57756;47.408;18.940;2022-07-22T07:22:06;4.63;;;2.00;;
70335;SDS011;57756;47.408;18.940;2022-07-22T07:24:32;8.23;;;2.17;;
70335;SDS011;57756;47.408;18.940;2022-07-22T07:26:58;6.57;;;2.22;;
70335;SDS011;57756;47.408;18.940;2022-07-22T07:29:23;5.57;;;2.00;;
70335;SDS011;57756;47.408;18.940;2022-07-22T07:31:49;4.13;;;2.25;;
70335;SDS011;57756;47.408;18.940;2022-07-22T07:34:15;4.73;;;1.97;;
70335;SDS011;57756;47.408;18.940;2022-07-22T07:36:40;4.18;;;1.77;;
70335;SDS011;57756;47.408;18.940;2022-07-22T07:39:07;4.50;;;1.90;;
70335;SDS011;57756;47.408;18.940;2022-07-22T07:41:32;4.63;;;2.30;;
70335;SDS011;57756;47.408;18.940;2022-07-22T07:43:58;4.30;;;2.23;;
70335;SDS011;57756;47.408;18.940;2022-07-22T07:46:23;4.35;;;2.10;;
70335;SDS011;57756;47.408;18.940;2022-07-22T07:48:49;5.35;;;1.60;;
70335;SDS011;57756;47.408;18.940;2022-07-22T07:51:15;3.43;;;1.63;;
70335;SDS011;57756;47.408;18.940;2022-07-22T07:53:41;4.18;;;1.67;;
70335;SDS011;57756;47.408;18.940;2022-07-22T07:56:06;5.27;;;1.90;;
70335;SDS011;57756;47.408;18.940;2022-07-22T07:58:32;4.70;;;1.50;;
70335;SDS011;57756;47.408;18.940;2022-07-22T08:00:57;5.30;;;1.90;;
70335;SDS011;57756;47.408;18.940;2022-07-22T08:03:23;3.00;;;1.43;;
70335;SDS011;57756;47.408;18.940;2022-07-22T08:05:48;3.78;;;1.60;;
70335;SDS011;57756;47.408;18.940;2022-07-22T08:08:14;5.00;;;1.50;;
70335;SDS011;57756;47.408;18.940;2022-07-22T08:10:40;5.63;;;1.80;;
70335;SDS011;57756;47.408;18.940;2022-07-22T08:13:05;3.72;;;1.88;;
70335;SDS011;57756;47.408;18.940;2022-07-22T08:15:31;5.23;;;2.60;;
70335;SDS011;57756;47.408;18.940;2022-07-22T08:17:57;3.83;;;2.20;;
70335;SDS011;57756;47.408;18.940;2022-07-22T08:20:24;5.28;;;1.98;;
70335;SDS011;57756;47.408;18.940;2022-07-22T08:22:51;5.25;;;1.90;;
70335;SDS011;57756;47.408;18.940;2022-07-22T08:25:17;5.35;;;2.25;;
70335;SDS011;57756;47.408;18.940;2022-07-22T08:27:42;7.33;;;2.37;;
70335;SDS011;57756;47.408;18.940;2022-07-22T08:30:08;5.37;;;1.90;;
70335;SDS011;57756;47.408;18.940;2022-07-22T08:32:34;5.97;;;2.17;;
70335;SDS011;57756;47.408;18.940;2022-07-22T08:35:00;7.03;;;2.22;;
70335;SDS011;57756;47.408;18.940;2022-07-22T08:37:26;6.72;;;1.88;;
70335;SDS011;57756;47.408;18.940;2022-07-22T08:39:52;4.57;;;1.63;;
70335;SDS011;57756;47.408;18.940;2022-07-22T08:42:19;4.63;;;2.17;;
70335;SDS011;57756;47.408;18.940;2022-07-22T08:44:47;4.88;;;2.00;;
70335;SDS011;57756;47.408;18.940;2022-07-22T08:47:14;4.97;;;2.20;;
70335;SDS011;57756;47.408;18.940;2022-07-22T08:49:39;4.93;;;2.07;;
70335;SDS011;57756;47.408;18.940;2022-07-22T08:52:05;6.13;;;2.30;;
70335;SDS011;57756;47.408;18.940;2022-07-22T08:54:31;5.68;;;2.28;;
70335;SDS011;57756;47.408;18.940;2022-07-22T08:56:57;4.73;;;1.90;;
70335;SDS011;57756;47.408;18.940;2022-07-22T08:59:24;6.07;;;2.07;;
70335;SDS011;57756;47.408;18.940;2022-07-22T09:02:09;4.30;;;2.28;;
70335;SDS011;57756;47.408;18.940;2022-07-22T09:07:36;6.50;;;2.22;;
70335;SDS011;57756;47.408;18.940;2022-07-22T09:10:05;6.13;;;2.40;;
70335;SDS011;57756;47.408;18.940;2022-07-22T09:12:32;6.82;;;2.50;;
70335;SDS011;57756;47.408;18.940;2022-07-22T09:14:59;7.85;;;2.35;;
70335;SDS011;57756;47.408;18.940;2022-07-22T09:17:28;6.07;;;2.45;;
70335;SDS011;57756;47.408;18.940;2022-07-22T09:19:56;5.50;;;2.63;;
70335;SDS011;57756;47.408;18.940;2022-07-22T09:22:33;9.07;;;2.77;;
70335;SDS011;57756;47.408;18.940;2022-07-22T09:25:17;7.72;;;2.65;;
70335;SDS011;57756;47.408;18.940;2022-07-22T09:27:52;5.88;;;2.50;;
70335;SDS011;57756;47.408;18.940;2022-07-22T09:30:21;5.85;;;2.70;;
70335;SDS011;57756;47.408;18.940;2022-07-22T09:32:50;8.98;;;3.25;;
70335;SDS011;57756;47.408;18.940;2022-07-22T09:35:17;4.73;;;2.80;;
70335;SDS011;57756;47.408;18.940;2022-07-22T09:37:51;8.15;;;2.60;;
70335;SDS011;57756;47.408;18.940;2022-07-22T09:40:20;9.40;;;3.00;;
70335;SDS011;57756;47.408;18.940;2022-07-22T09:45:20;9.65;;;3.67;;
70335;SDS011;57756;47.408;18.940;2022-07-22T09:47:47;8.73;;;3.07;;
70335;SDS011;57756;47.408;18.940;2022-07-22T09:50:23;9.48;;;3.63;;
70335;SDS011;57756;47.408;18.940;2022-07-22T09:52:51;6.30;;;3.78;;
70335;SDS011;57756;47.408;18.940;2022-07-22T09:55:19;9.25;;;3.80;;
70335;SDS011;57756;47.408;18.940;2022-07-22T09:57:46;9.32;;;3.72;;
70335;SDS011;57756;47.408;18.940;2022-07-22T10:00:13;8.70;;;3.60;;
70335;SDS011;57756;47.408;18.940;2022-07-22T10:02:44;11.80;;;4.20;;
70335;SDS011;57756;47.408;18.940;2022-07-22T10:05:13;11.75;;;4.18;;
70335;SDS011;57756;47.408;18.940;2022-07-22T10:07:43;10.95;;;3.70;;
70335;SDS011;57756;47.408;18.940;2022-07-22T10:10:10;8.57;;;3.53;;
70335;SDS011;57756;47.408;18.940;2022-07-22T10:12:38;7.97;;;3.90;;
70335;SDS011;57756;47.408;18.940;2022-07-22T10:15:05;12.63;;;4.20;;
70335;SDS011;57756;47.408;18.940;2022-07-22T10:17:33;10.65;;;3.95;;
70335;SDS011;57756;47.408;18.940;2022-07-22T10:20:04;9.02;;;4.53;;
70335;SDS011;57756;47.408;18.940;2022-07-22T10:25:09;13.60;;;4.60;;
70335;SDS011;57756;47.408;18.940;2022-07-22T10:27:44;7.30;;;4.40;;
70335;SDS011;57756;47.408;18.940;2022-07-22T10:30:10;9.57;;;4.47;;
70335;SDS011;57756;47.408;18.940;2022-07-22T10:32:36;7.93;;;3.97;;
70335;SDS011;57756;47.408;18.940;2022-07-22T10:40:16;7.22;;;4.55;;
70335;SDS011;57756;47.408;18.940;2022-07-22T10:45:32;7.40;;;4.95;;
70335;SDS011;57756;47.408;18.940;2022-07-22T10:48:00;8.87;;;4.80;;
70335;SDS011;57756;47.408;18.940;2022-07-22T10:53:12;8.52;;;4.57;;
70335;SDS011;57756;47.408;18.940;2022-07-22T10:56:14;7.10;;;4.50;;
70335;SDS011;57756;47.408;18.940;2022-07-22T11:01:33;8.87;;;5.33;;
70335;SDS011;57756;47.408;18.940;2022-07-22T11:06:36;9.95;;;4.47;;
70335;SDS011;57756;47.408;18.940;2022-07-22T11:09:11;11.90;;;5.00;;
70335;SDS011;57756;47.408;18.940;2022-07-22T11:11:39;9.57;;;4.95;;
70335;SDS011;57756;47.408;18.940;2022-07-22T11:14:15;7.97;;;5.20;;
70335;SDS011;57756;47.408;18.940;2022-07-22T11:16:53;6.78;;;4.75;;
70335;SDS011;57756;47.408;18.940;2022-07-22T11:19:30;9.00;;;4.97;;
70335;SDS011;57756;47.408;18.940;2022-07-22T11:22:06;10.37;;;4.90;;
70335;SDS011;57756;47.408;18.940;2022-07-22T11:24:33;8.82;;;5.05;;
70335;SDS011;57756;47.408;18.940;2022-07-22T11:27:00;8.25;;;4.82;;
70335;SDS011;57756;47.408;18.940;2022-07-22T11:29:36;8.73;;;4.80;;
70335;SDS011;57756;47.408;18.940;2022-07-22T11:32:05;7.03;;;4.03;;
70335;SDS011;57756;47.408;18.940;2022-07-22T11:34:34;6.90;;;4.50;;
70335;SDS011;57756;47.408;18.940;2022-07-22T11:37:02;9.77;;;4.65;;
70335;SDS011;57756;47.408;18.940;2022-07-22T11:39:28;10.32;;;4.90;;
70335;SDS011;57756;47.408;18.940;2022-07-22T11:41:55;8.25;;;4.25;;
70335;SDS011;57756;47.408;18.940;2022-07-22T11:44:23;7.43;;;4.60;;
70335;SDS011;57756;47.408;18.940;2022-07-22T11:46:50;6.32;;;4.75;;
70335;SDS011;57756;47.408;18.940;2022-07-22T11:49:18;7.70;;;4.80;;
70335;SDS011;57756;47.408;18.940;2022-07-22T11:51:45;6.50;;;4.40;;
70335;SDS011;57756;47.408;18.940;2022-07-22T11:54:11;9.77;;;3.85;;
70335;SDS011;57756;47.408;18.940;2022-07-22T11:56:37;10.18;;;4.18;;
70335;SDS011;57756;47.408;18.940;2022-07-22T11:59:03;5.13;;;4.30;;
70335;SDS011;57756;47.408;18.940;2022-07-22T12:01:30;11.20;;;4.77;;
70335;SDS011;57756;47.408;18.940;2022-07-22T12:06:33;6.22;;;4.38;;
70335;SDS011;57756;47.408;18.940;2022-07-22T12:11:34;9.02;;;4.25;;
70335;SDS011;57756;47.408;18.940;2022-07-22T12:14:11;8.43;;;3.93;;
70335;SDS011;57756;47.408;18.940;2022-07-22T12:16:38;12.63;;;4.30;;
70335;SDS011;57756;47.408;18.940;2022-07-22T12:19:06;7.63;;;4.32;;
70335;SDS011;57756;47.408;18.940;2022-07-22T12:21:34;7.75;;;4.75;;
70335;SDS011;57756;47.408;18.940;2022-07-22T12:26:45;10.60;;;4.93;;
70335;SDS011;57756;47.408;18.940;2022-07-22T12:29:23;5.00;;;4.22;;
70335;SDS011;57756;47.408;18.940;2022-07-22T12:31:54;10.40;;;4.20;;
70335;SDS011;57756;47.408;18.940;2022-07-22T12:34:30;7.03;;;3.78;;
70335;SDS011;57756;47.408;18.940;2022-07-22T12:37:01;8.13;;;3.80;;
70335;SDS011;57756;47.408;18.940;2022-07-22T12:39:37;6.97;;;4.00;;
70335;SDS011;57756;47.408;18.940;2022-07-22T12:42:14;9.48;;;4.20;;
70335;SDS011;57756;47.408;18.940;2022-07-22T12:44:45;10.10;;;3.70;;
70335;SDS011;57756;47.408;18.940;2022-07-22T12:47:15;8.73;;;4.03;;
70335;SDS011;57756;47.408;18.940;2022-07-22T12:49:41;10.10;;;4.03;;
70335;SDS011;57756;47.408;18.940;2022-07-22T12:52:07;7.50;;;4.10;;
70335;SDS011;57756;47.408;18.940;2022-07-22T12:54:35;7.68;;;4.22;;
70335;SDS011;57756;47.408;18.940;2022-07-22T12:57:02;9.07;;;4.20;;
70335;SDS011;57756;47.408;18.940;2022-07-22T12:59:28;9.23;;;4.13;;
70335;SDS011;57756;47.408;18.940;2022-07-22T13:01:54;8.63;;;3.92;;
70335;SDS011;57756;47.408;18.940;2022-07-22T13:04:19;9.77;;;4.10;;
70335;SDS011;57756;47.408;18.940;2022-07-22T13:06:45;7.80;;;3.90;;
70335;SDS011;57756;47.408;18.940;2022-07-22T13:09:10;12.73;;;4.60;;
70335;SDS011;57756;47.408;18.940;2022-07-22T13:11:36;6.47;;;4.33;;
70335;SDS011;57756;47.408;18.940;2022-07-22T13:14:05;13.75;;;4.55;;
70335;SDS011;57756;47.408;18.940;2022-07-22T13:16:31;7.70;;;4.30;;
70335;SDS011;57756;47.408;18.940;2022-07-22T13:18:57;6.60;;;3.70;;
70335;SDS011;57756;47.408;18.940;2022-07-22T13:21:23;8.60;;;3.67;;
70335;SDS011;57756;47.408;18.940;2022-07-22T13:23:48;6.63;;;4.27;;
70335;SDS011;57756;47.408;18.940;2022-07-22T13:26:14;5.23;;;4.07;;
70335;SDS011;57756;47.408;18.940;2022-07-22T13:28:39;11.10;;;4.23;;
70335;SDS011;57756;47.408;18.940;2022-07-22T13:31:05;10.55;;;4.15;;
70335;SDS011;57756;47.408;18.940;2022-07-22T13:33:31;5.27;;;3.77;;
70335;SDS011;57756;47.408;18.940;2022-07-22T13:35:56;7.73;;;4.10;;
70335;SDS011;57756;47.408;18.940;2022-07-22T13:38:22;8.68;;;3.78;;
70335;SDS011;57756;47.408;18.940;2022-07-22T13:40:47;7.10;;;4.10;;
70335;SDS011;57756;47.408;18.940;2022-07-22T13:43:20;5.95;;;4.38;;
70335;SDS011;57756;47.408;18.940;2022-07-22T13:45:48;9.90;;;3.80;;
70335;SDS011;57756;47.408;18.940;2022-07-22T13:48:13;8.63;;;4.07;;
70335;SDS011;57756;47.408;18.940;2022-07-22T13:50:39;9.02;;;4.00;;
70335;SDS011;57756;47.408;18.940;2022-07-22T13:53:05;8.97;;;4.60;;
70335;SDS011;57756;47.408;18.940;2022-07-22T13:55:30;8.02;;;4.18;;
70335;SDS011;57756;47.408;18.940;2022-07-22T13:57:56;9.10;;;4.03;;
70335;SDS011;57756;47.408;18.940;2022-07-22T14:00:23;8.52;;;4.15;;
70335;SDS011;57756;47.408;18.940;2022-07-22T14:02:49;8.27;;;4.20;;
70335;SDS011;57756;47.408;18.940;2022-07-22T14:05:14;6.40;;;4.03;;
70335;SDS011;57756;47.408;18.940;2022-07-22T14:07:40;8.43;;;4.20;;
70335;SDS011;57756;47.408;18.940;2022-07-22T14:10:06;7.73;;;3.80;;
70335;SDS011;57756;47.408;18.940;2022-07-22T14:12:32;8.38;;;3.78;;
70335;SDS011;57756;47.408;18.940;2022-07-22T14:14:58;6.95;;;4.10;;
70335;SDS011;57756;47.408;18.940;2022-07-22T14:17:23;5.73;;;3.80;;
70335;SDS011;57756;47.408;18.940;2022-07-22T14:19:48;7.83;;;4.30;;
70335;SDS011;57756;47.408;18.940;2022-07-22T14:22:14;7.78;;;4.07;;
70335;SDS011;57756;47.408;18.940;2022-07-22T14:24:40;9.80;;;4.03;;
70335;SDS011;57756;47.408;18.940;2022-07-22T14:27:05;6.37;;;4.23;;
70335;SDS011;57756;47.408;18.940;2022-07-22T14:29:31;7.37;;;4.53;;
70335;SDS011;57756;47.408;18.940;2022-07-22T14:31:56;8.47;;;3.90;;
70335;SDS011;57756;47.408;18.940;2022-07-22T14:34:22;10.50;;;4.20;;
70335;SDS011;57756;47.408;18.940;2022-07-22T14:36:47;12.20;;;4.53;;
70335;SDS011;57756;47.408;18.940;2022-07-22T14:39:13;7.57;;;4.57;;
70335;SDS011;57756;47.408;18.940;2022-07-22T14:41:38;8.93;;;4.40;;
70335;SDS011;57756;47.408;18.940;2022-07-22T14:44:04;8.90;;;4.30;;
70335;SDS011;57756;47.408;18.940;2022-07-22T14:46:29;7.97;;;4.25;;
70335;SDS011;57756;47.408;18.940;2022-07-22T14:48:55;12.30;;;4.33;;
70335;SDS011;57756;47.408;18.940;2022-07-22T14:51:21;8.93;;;4.17;;
70335;SDS011;57756;47.408;18.940;2022-07-22T14:53:47;9.60;;;4.93;;
70335;SDS011;57756;47.408;18.940;2022-07-22T14:56:13;8.70;;;4.82;;
70335;SDS011;57756;47.408;18.940;2022-07-22T14:58:39;11.67;;;4.63;;
70335;SDS011;57756;47.408;18.940;2022-07-22T15:01:04;8.30;;;4.28;;
70335;SDS011;57756;47.408;18.940;2022-07-22T15:03:30;10.07;;;4.00;;